createdAt,value
2023-03-23T15:58:45.379Z,8.05
2023-03-23T15:59:47.919Z,5.50
2023-03-23T16:00:51.994Z,7.90
2023-03-23T16:01:54.783Z,5.57
2023-03-23T16:03:02.254Z,6.07
2023-03-23T16:04:10.552Z,6.53
2023-03-23T16:05:13.498Z,6.45
2023-03-23T16:06:24.466Z,5.45
2023-03-23T16:07:28.041Z,8.50
2023-03-23T16:08:30.626Z,5.30
2023-03-23T16:09:33.157Z,8.15
2023-03-23T16:10:35.888Z,8.05
2023-03-23T16:11:38.511Z,6.35
2023-03-23T16:12:41.219Z,6.32
2023-03-23T16:13:44.243Z,6.15
2023-03-23T16:14:46.912Z,9.40
2023-03-23T16:15:49.637Z,5.63
2023-03-23T16:16:53.276Z,8.55
2023-03-23T16:17:56.213Z,5.88
2023-03-23T16:18:58.879Z,7.30
2023-03-23T16:20:03.320Z,7.43
2023-03-23T16:21:06.124Z,8.02
2023-03-23T16:22:09.554Z,9.25
2023-03-23T16:23:12.057Z,8.20
2023-03-23T16:24:15.440Z,6.93
2023-03-23T16:25:19.027Z,5.72
2023-03-23T16:26:21.630Z,6.20
2023-03-23T16:27:24.043Z,7.43
2023-03-23T16:28:26.532Z,4.97
2023-03-23T16:30:36.876Z,4.95
2023-03-23T16:31:39.526Z,5.55
2023-03-23T16:32:45.833Z,6.72
2023-03-23T16:33:48.513Z,3.83
2023-03-23T16:34:51.057Z,5.97
2023-03-23T16:35:53.620Z,5.82
2023-03-23T16:36:56.504Z,5.00
2023-03-23T16:38:08.131Z,5.25
2023-03-23T16:39:15.873Z,5.57
2023-03-23T16:40:19.871Z,4.80
2023-03-23T16:41:22.401Z,6.50
2023-03-23T16:42:24.853Z,5.63
2023-03-23T16:43:27.315Z,6.47
2023-03-23T16:44:29.771Z,5.68
2023-03-23T16:45:32.746Z,6.32
2023-03-23T16:46:35.267Z,8.48
2023-03-23T16:47:38.061Z,6.53
2023-03-23T16:48:40.786Z,4.55
2023-03-23T16:49:43.332Z,4.65
2023-03-23T16:50:46.518Z,4.47
2023-03-23T16:51:49.113Z,12.10
2023-03-23T16:52:51.539Z,4.68
2023-03-23T16:53:54.043Z,5.47
2023-03-23T16:54:57.144Z,6.65
2023-03-23T16:55:59.909Z,6.47
2023-03-23T16:57:02.412Z,7.82
2023-03-23T16:58:16.377Z,4.68
2023-03-23T16:59:19.825Z,5.13
2023-03-23T17:00:23.131Z,3.90
2023-03-23T17:01:25.932Z,5.50
2023-03-23T17:02:28.611Z,10.07
2023-03-23T17:03:31.308Z,14.75
2023-03-23T17:04:34.492Z,15.52
2023-03-23T17:05:37.650Z,18.05
2023-03-23T17:06:40.895Z,15.60
2023-03-23T17:07:43.744Z,13.88
2023-03-23T17:08:46.649Z,16.00
2023-03-23T17:09:49.744Z,19.38
2023-03-23T17:10:53.022Z,19.83
2023-03-23T17:11:56.052Z,21.35
2023-03-23T17:12:59.111Z,17.88
2023-03-23T17:14:01.612Z,15.40
2023-03-23T17:15:04.967Z,13.45
2023-03-23T17:16:08.058Z,14.65
2023-03-23T17:17:10.901Z,12.70
2023-03-23T17:18:14.396Z,10.95
2023-03-23T17:19:17.059Z,10.50
2023-03-23T17:20:20.060Z,12.43
2023-03-23T17:21:25.921Z,11.45
2023-03-23T17:22:28.916Z,11.75
2023-03-23T17:23:31.464Z,12.38
2023-03-23T17:24:34.131Z,11.27
2023-03-23T17:25:36.798Z,12.35
2023-03-23T17:26:39.328Z,12.55
2023-03-23T17:27:42.942Z,14.23
2023-03-23T17:28:45.616Z,15.13
2023-03-23T17:29:48.613Z,17.45
2023-03-23T17:30:52.112Z,15.82
2023-03-23T17:31:54.690Z,12.60
2023-03-23T17:32:57.355Z,20.05
2023-03-23T17:34:00.894Z,15.73
2023-03-23T17:35:05.952Z,15.52
2023-03-23T17:36:08.960Z,18.10
2023-03-23T17:37:11.721Z,18.25
2023-03-23T17:38:14.299Z,17.15
2023-03-23T17:39:16.810Z,23.13
2023-03-23T17:40:19.426Z,20.88
2023-03-23T17:41:22.002Z,18.85
2023-03-23T17:42:24.597Z,19.55
2023-03-23T17:43:27.362Z,12.90
2023-03-23T17:44:30.744Z,16.42
2023-03-23T17:45:33.422Z,16.20
2023-03-23T17:46:36.064Z,23.25
2023-03-23T17:47:38.961Z,20.30
2023-03-23T17:48:41.484Z,24.65
2023-03-23T17:49:44.345Z,42.22
2023-03-23T17:50:48.365Z,41.95
2023-03-23T17:51:51.079Z,36.63
2023-03-23T17:52:53.863Z,30.35
2023-03-23T17:53:56.506Z,33.22
2023-03-23T17:55:00.293Z,31.17
2023-03-23T17:56:03.666Z,40.28
2023-03-23T17:57:06.807Z,41.38
2023-03-23T17:58:10.106Z,38.65
2023-03-23T17:59:12.873Z,33.58
2023-03-23T18:00:15.915Z,34.42
2023-03-23T18:01:18.471Z,38.10
2023-03-23T18:02:21.032Z,30.25
2023-03-23T18:03:24.602Z,29.52
2023-03-23T18:04:29.642Z,29.10
2023-03-23T18:05:32.441Z,34.60
2023-03-23T18:06:35.103Z,40.50
2023-03-23T18:07:37.760Z,31.90
2023-03-23T18:08:40.859Z,33.15
2023-03-23T18:09:45.282Z,27.20
2023-03-23T18:10:49.464Z,32.13
2023-03-23T18:11:53.000Z,30.77
2023-03-23T18:12:55.997Z,26.88
2023-03-23T18:13:58.950Z,32.17
2023-03-23T18:15:01.406Z,26.63
2023-03-23T18:16:05.301Z,19.98
2023-03-23T18:17:08.497Z,32.45
2023-03-23T18:18:11.616Z,26.55
2023-03-23T18:19:14.125Z,23.40
2023-03-23T18:20:16.968Z,19.65
2023-03-23T18:21:19.608Z,19.20
2023-03-23T18:22:23.357Z,18.00
2023-03-23T18:23:26.189Z,16.60
2023-03-23T18:24:28.608Z,14.65
2023-03-23T18:25:31.305Z,18.70
2023-03-23T18:26:33.724Z,16.65
2023-03-23T18:27:36.373Z,17.48
2023-03-23T18:28:38.910Z,16.92
2023-03-23T18:29:41.798Z,21.50
2023-03-23T18:30:49.124Z,20.73
2023-03-23T18:31:51.670Z,22.55
2023-03-23T18:32:54.565Z,20.15
2023-03-23T18:33:57.508Z,20.63
2023-03-23T18:35:00.547Z,23.73
2023-03-23T18:36:04.168Z,19.77
2023-03-23T18:37:07.301Z,19.05
2023-03-23T18:38:10.113Z,22.80
2023-03-23T18:39:12.741Z,18.38
2023-03-23T18:40:17.469Z,19.27
2023-03-23T18:41:20.065Z,22.80
2023-03-23T18:42:23.013Z,20.73
2023-03-23T18:43:25.917Z,27.65
2023-03-23T18:44:28.545Z,24.00
2023-03-23T18:45:31.337Z,25.88
2023-03-23T18:46:33.794Z,19.50
2023-03-23T18:47:37.798Z,19.08
2023-03-23T18:48:40.978Z,24.70
2023-03-23T18:49:46.398Z,21.85
2023-03-23T18:50:50.298Z,27.20
2023-03-23T18:51:52.734Z,29.83
2023-03-23T18:52:55.361Z,20.27
2023-03-23T18:53:57.886Z,23.13
2023-03-23T18:55:00.815Z,26.73
2023-03-23T18:56:11.865Z,26.55
2023-03-23T18:57:14.872Z,21.52
2023-03-23T18:58:18.707Z,21.67
2023-03-23T18:59:24.094Z,18.73
2023-03-23T19:00:27.418Z,23.27
2023-03-23T19:01:30.153Z,27.77
2023-03-23T19:02:33.043Z,22.73
2023-03-23T19:03:37.219Z,17.33
2023-03-23T19:04:40.682Z,22.02
2023-03-23T19:05:44.743Z,16.92
2023-03-23T19:06:47.555Z,13.30
2023-03-23T19:07:53.108Z,19.27
2023-03-23T19:08:56.140Z,15.38
2023-03-23T19:09:58.856Z,12.48
2023-03-23T19:11:03.898Z,18.48
2023-03-23T19:12:07.093Z,12.35
2023-03-23T19:13:11.328Z,14.63
2023-03-23T19:14:13.993Z,13.57
2023-03-23T19:15:16.978Z,17.23
2023-03-23T19:16:19.533Z,20.75
2023-03-23T19:17:22.126Z,24.30
2023-03-23T19:18:24.603Z,26.20
2023-03-23T19:19:27.434Z,28.25
2023-03-23T19:21:37.579Z,26.20
2023-03-23T19:22:40.869Z,23.10
2023-03-23T19:23:43.455Z,17.42
2023-03-23T19:24:46.737Z,18.77
2023-03-23T19:25:49.839Z,25.02
2023-03-23T19:26:52.695Z,17.35
2023-03-23T19:29:23.120Z,18.33
2023-03-23T19:30:23.272Z,25.13
2023-03-23T19:31:26.114Z,21.52
2023-03-23T19:32:28.657Z,25.50
2023-03-23T19:33:31.676Z,20.85
2023-03-23T19:34:34.132Z,18.27
2023-03-23T19:35:37.431Z,17.55
2023-03-23T19:36:40.502Z,20.20
2023-03-23T19:37:43.084Z,16.13
2023-03-23T19:38:45.868Z,15.88
2023-03-23T19:39:48.404Z,17.08
2023-03-23T19:40:57.631Z,16.63
2023-03-23T19:42:00.587Z,11.38
2023-03-23T19:43:05.983Z,16.85
2023-03-23T19:44:08.675Z,11.57
2023-03-23T19:45:11.422Z,13.13
2023-03-23T19:46:14.825Z,12.88
2023-03-23T19:47:17.519Z,11.23
2023-03-23T19:48:21.852Z,12.90
2023-03-23T19:49:25.060Z,21.25
2023-03-23T19:50:27.727Z,17.98
2023-03-23T19:51:30.663Z,13.30
2023-03-23T19:52:33.231Z,10.88
2023-03-23T19:53:36.219Z,15.13
2023-03-23T19:54:39.462Z,9.88
2023-03-23T19:55:45.035Z,11.27
2023-03-23T19:56:47.724Z,13.50
2023-03-23T19:57:50.635Z,15.50
2023-03-23T19:58:53.430Z,10.98
2023-03-23T19:59:56.006Z,8.90
2023-03-23T20:01:01.074Z,14.90
2023-03-23T20:02:04.224Z,12.95
2023-03-23T20:03:07.603Z,11.50
2023-03-23T20:04:11.109Z,11.02
2023-03-23T20:05:15.435Z,10.07
2023-03-23T20:06:18.379Z,10.93
2023-03-23T20:07:21.692Z,11.60
2023-03-23T20:08:25.180Z,10.05
2023-03-23T20:09:28.529Z,8.75
2023-03-23T20:10:33.124Z,13.48
2023-03-23T20:11:35.788Z,8.68
2023-03-23T20:12:38.402Z,12.60
2023-03-23T20:13:41.504Z,16.38
2023-03-23T20:14:45.357Z,9.30
2023-03-23T20:15:53.380Z,10.18
2023-03-23T20:16:56.828Z,10.70
2023-03-23T20:18:01.405Z,9.45
2023-03-23T20:19:05.912Z,8.65
2023-03-23T20:20:10.426Z,9.73
2023-03-23T20:21:18.965Z,10.77
2023-03-23T20:22:22.587Z,8.88
2023-03-23T20:23:25.794Z,13.50
2023-03-23T20:24:28.425Z,8.32
2023-03-23T20:25:31.400Z,7.22
2023-03-23T20:26:37.548Z,11.68
2023-03-23T20:27:40.433Z,9.50
2023-03-23T20:28:43.543Z,10.63
2023-03-23T20:29:46.483Z,8.85
2023-03-23T20:31:17.005Z,10.10
2023-03-23T20:32:12.454Z,7.72
2023-03-23T20:33:17.079Z,7.00
2023-03-23T20:34:28.912Z,10.25
2023-03-23T20:35:31.906Z,9.70
2023-03-23T20:36:45.838Z,8.98
2023-03-23T20:37:50.644Z,5.65
2023-03-23T20:38:53.265Z,7.18
2023-03-23T20:39:55.942Z,5.82
2023-03-23T20:40:59.708Z,6.90
2023-03-23T20:42:03.433Z,10.35
2023-03-23T20:43:06.138Z,7.95
2023-03-23T20:44:14.112Z,6.25
2023-03-23T20:45:18.589Z,5.38
2023-03-23T20:46:25.288Z,5.32
2023-03-23T20:47:31.942Z,6.47
2023-03-23T20:48:37.216Z,7.32
2023-03-23T20:49:40.492Z,5.35
2023-03-23T20:50:43.640Z,6.28
2023-03-23T20:51:49.070Z,7.32
2023-03-23T20:52:51.626Z,5.93
2023-03-23T20:53:55.092Z,8.50
2023-03-23T20:54:58.219Z,7.15
2023-03-23T20:56:05.461Z,5.35
2023-03-23T20:57:08.377Z,6.28
2023-03-23T20:58:11.008Z,5.88
2023-03-23T20:59:14.333Z,7.75
2023-03-23T21:00:18.084Z,3.85
2023-03-23T21:01:21.701Z,4.50
2023-03-23T21:02:29.954Z,5.47
2023-03-23T21:03:40.043Z,8.77
2023-03-23T21:04:45.231Z,7.63
2023-03-23T21:05:47.854Z,6.32
2023-03-23T21:06:51.913Z,5.50
2023-03-23T21:07:55.820Z,7.63
2023-03-23T21:08:58.924Z,5.72
2023-03-23T21:10:01.801Z,7.20
2023-03-23T21:11:09.301Z,6.47
2023-03-23T21:12:11.924Z,6.80
2023-03-23T21:13:15.935Z,5.22
2023-03-23T21:14:19.515Z,11.90
2023-03-23T21:15:22.014Z,6.30
2023-03-23T21:16:24.995Z,5.65
2023-03-23T21:17:27.754Z,5.28
2023-03-23T21:18:31.216Z,8.02
2023-03-23T21:19:35.995Z,5.10
2023-03-23T21:20:38.568Z,5.60
2023-03-23T21:21:55.997Z,5.53
2023-03-23T21:22:59.881Z,5.57
2023-03-23T21:24:02.794Z,7.72
2023-03-23T21:25:06.253Z,4.93
2023-03-23T21:26:09.619Z,4.43
2023-03-23T21:27:12.657Z,7.82
2023-03-23T21:28:15.600Z,4.75
2023-03-23T21:29:18.140Z,8.57
2023-03-23T21:30:22.223Z,7.25
2023-03-23T21:31:25.594Z,6.05
2023-03-23T21:32:28.198Z,5.07
2023-03-23T21:33:31.057Z,6.85
2023-03-23T21:34:33.702Z,5.13
2023-03-23T21:35:36.295Z,6.60
2023-03-23T21:36:38.930Z,3.53
2023-03-23T21:37:41.679Z,4.30
2023-03-23T21:38:44.714Z,4.43
2023-03-23T21:39:47.539Z,4.45
2023-03-23T21:40:50.141Z,7.28
2023-03-23T21:41:52.753Z,5.57
2023-03-23T21:42:55.198Z,4.90
2023-03-23T21:43:57.748Z,4.68
2023-03-23T21:45:04.164Z,3.30
2023-03-23T21:46:09.015Z,6.78
2023-03-23T21:47:12.899Z,4.80
2023-03-23T21:48:15.721Z,3.90
2023-03-23T21:49:18.214Z,3.95
2023-03-23T21:50:22.119Z,4.63
2023-03-23T21:51:26.548Z,2.63
2023-03-23T21:52:29.263Z,3.75
2023-03-23T21:53:34.019Z,4.72
2023-03-23T21:54:36.528Z,8.48
2023-03-23T21:55:42.325Z,3.55
2023-03-23T21:56:44.888Z,2.75
2023-03-23T21:57:48.020Z,5.57
2023-03-23T21:58:51.121Z,5.40
2023-03-23T21:59:53.662Z,3.78
2023-03-23T22:00:56.746Z,4.43
2023-03-23T22:01:59.392Z,4.03
2023-03-23T22:03:04.828Z,3.45
2023-03-23T22:04:07.742Z,4.85
2023-03-23T22:05:10.789Z,4.00
2023-03-23T22:06:20.933Z,6.20
2023-03-23T22:07:24.089Z,6.50
2023-03-23T22:08:28.955Z,5.43
2023-03-23T22:09:31.602Z,4.00
2023-03-23T22:10:34.197Z,6.00
2023-03-23T22:11:38.129Z,5.88
2023-03-23T22:12:41.009Z,6.22
2023-03-23T22:13:43.739Z,7.07
2023-03-23T22:14:46.473Z,5.63
2023-03-23T22:15:49.262Z,7.68
2023-03-23T22:16:52.140Z,5.82
2023-03-23T22:17:55.623Z,5.97
2023-03-23T22:19:00.339Z,8.20
2023-03-23T22:20:05.645Z,4.30
2023-03-23T22:21:08.191Z,4.60
2023-03-23T22:22:10.872Z,5.65
2023-03-23T22:23:13.405Z,5.15
2023-03-23T22:24:16.120Z,6.38
2023-03-23T22:25:18.772Z,6.15
2023-03-23T22:26:21.885Z,5.28
2023-03-23T22:27:24.442Z,4.18
2023-03-23T22:28:27.273Z,6.45
2023-03-23T22:29:29.728Z,5.60
2023-03-23T22:30:33.483Z,4.00
2023-03-23T22:31:39.626Z,6.68
2023-03-23T22:32:42.621Z,4.78
2023-03-23T22:33:46.271Z,6.35
2023-03-23T22:34:49.276Z,5.95
2023-03-23T22:35:52.155Z,5.30
2023-03-23T22:36:56.092Z,6.55
2023-03-23T22:37:58.646Z,11.10
2023-03-23T22:39:01.715Z,5.97
2023-03-23T22:40:07.224Z,6.20
2023-03-23T22:41:13.890Z,7.60
2023-03-23T22:42:16.552Z,5.25
2023-03-23T22:43:19.212Z,4.95
2023-03-23T22:44:21.802Z,7.47
2023-03-23T22:45:26.141Z,7.97
2023-03-23T22:46:29.071Z,5.65
2023-03-23T22:47:31.611Z,5.30
2023-03-23T22:48:34.192Z,6.18
2023-03-23T22:49:36.801Z,9.25
2023-03-23T22:50:39.682Z,8.40
2023-03-23T22:51:42.296Z,5.47
2023-03-23T22:52:44.858Z,6.18
2023-03-23T22:53:47.892Z,7.10
2023-03-23T22:54:50.760Z,4.32
2023-03-23T22:55:55.730Z,7.35
2023-03-23T22:56:58.312Z,4.60
2023-03-23T22:58:01.282Z,6.63
2023-03-23T22:59:07.488Z,6.57
2023-03-23T23:00:14.967Z,5.47
2023-03-23T23:01:20.641Z,7.25
2023-03-23T23:02:23.760Z,6.65
2023-03-23T23:03:27.480Z,4.38
2023-03-23T23:04:30.633Z,6.50
2023-03-23T23:05:33.914Z,3.80
2023-03-23T23:06:36.589Z,6.53
2023-03-23T23:07:39.611Z,6.88
2023-03-23T23:08:42.273Z,5.90
2023-03-23T23:09:45.719Z,6.25
2023-03-23T23:10:50.721Z,7.18
2023-03-23T23:11:53.187Z,7.25
2023-03-23T23:12:55.705Z,8.65
2023-03-23T23:13:58.499Z,5.53
2023-03-23T23:15:02.897Z,7.22
2023-03-23T23:16:07.259Z,8.73
2023-03-23T23:17:10.425Z,6.88
2023-03-23T23:18:13.140Z,9.52
2023-03-23T23:19:16.053Z,8.75
2023-03-23T23:20:19.138Z,6.90
2023-03-23T23:21:24.020Z,11.70
2023-03-23T23:22:26.700Z,6.35
2023-03-23T23:23:29.285Z,7.72
2023-03-23T23:24:32.615Z,6.55
2023-03-23T23:25:36.047Z,7.18
2023-03-23T23:26:38.755Z,6.85
2023-03-23T23:27:41.376Z,5.72
2023-03-23T23:28:45.132Z,6.60
2023-03-23T23:29:47.774Z,5.90
2023-03-23T23:30:51.515Z,7.40
2023-03-23T23:31:54.208Z,6.90
2023-03-23T23:32:58.941Z,6.07
2023-03-23T23:34:03.403Z,8.68
2023-03-23T23:35:06.205Z,9.48
2023-03-23T23:36:09.875Z,8.13
2023-03-23T23:37:12.309Z,8.18
2023-03-23T23:38:16.121Z,8.52
2023-03-23T23:39:18.701Z,7.35
2023-03-23T23:40:21.366Z,7.32
2023-03-23T23:41:24.045Z,11.27
2023-03-23T23:42:26.706Z,8.93
2023-03-23T23:43:29.676Z,5.82
2023-03-23T23:44:32.497Z,7.65
2023-03-23T23:45:34.951Z,7.97
2023-03-23T23:46:37.486Z,10.18
2023-03-23T23:47:40.598Z,9.57
2023-03-23T23:48:45.158Z,9.73
2023-03-23T23:49:48.924Z,7.85
2023-03-23T23:50:51.856Z,8.70
2023-03-23T23:51:54.998Z,8.35
2023-03-23T23:52:58.741Z,9.52
2023-03-23T23:54:02.005Z,10.75
2023-03-23T23:55:07.749Z,8.65
2023-03-23T23:56:11.667Z,9.13
2023-03-23T23:57:15.533Z,9.75
2023-03-23T23:58:19.259Z,9.63
2023-03-23T23:59:22.025Z,6.28
